Time;durP1;ratioP1;P1;durP2;ratioP2;P2;SDS_P1;SDS_P2;PMS_P1;PMS_P2;Temp;Humidity;BMP_temperature;BMP_pressure;BME280_temperature;BME280_humidity;BME280_pressure;Samples;Min_cycle;Max_cycle;Signal;HPM_P1;HPM_P2
2021/12/01 09:08:41;;;;;;;15.48;2.03;;;;;;;;;;5112180;27;20617;-67
2021/12/01 09:11:09;;;;;;;14.00;1.65;;;;;;;;;;5108215;28;20231;-66
2021/12/01 09:13:37;;;;;;;15.18;1.65;;;;;;;;;;5108311;28;20210;-67
2021/12/01 09:16:05;;;;;;;13.07;1.70;;;;;;;;;;5107981;28;20234;-67
2021/12/01 09:18:33;;;;;;;12.73;1.73;;;;;;;;;;5107872;28;20703;-67
2021/12/01 09:21:01;;;;;;;14.90;1.80;;;;;;;;;;5108310;28;20264;-67
2021/12/01 09:23:29;;;;;;;12.80;1.70;;;;;;;;;;5108054;28;20243;-67
2021/12/01 09:25:58;;;;;;;12.80;1.52;;;;;;;;;;5108184;28;20215;-66
2021/12/01 09:28:26;;;;;;;18.20;2.97;;;;;;;;;;5107578;28;20663;-67
2021/12/01 09:30:55;;;;;;;12.47;1.53;;;;;;;;;;5107806;28;20296;-68
2021/12/01 09:33:22;;;;;;;14.83;2.10;;;;;;;;;;5107811;28;20445;-67
2021/12/01 09:35:51;;;;;;;14.97;2.07;;;;;;;;;;5107711;28;20483;-68
2021/12/01 09:38:18;;;;;;;18.67;2.83;;;;;;;;;;5107490;28;20481;-67
2021/12/01 09:40:49;;;;;;;15.43;2.30;;;;;;;;;;5107552;28;20507;-67
2021/12/01 09:43:18;;;;;;;13.30;1.70;;;;;;;;;;5107952;28;20464;-67
2021/12/01 09:45:46;;;;;;;13.20;2.00;;;;;;;;;;5107741;28;20475;-68
2021/12/01 09:48:14;;;;;;;13.20;2.03;;;;;;;;;;5107503;28;20473;-69
2021/12/01 09:50:41;;;;;;;13.30;1.80;;;;;;;;;;5107403;28;20536;-67
2021/12/01 09:53:09;;;;;;;13.60;1.87;;;;;;;;;;5107566;28;20440;-67
2021/12/01 09:55:36;;;;;;;14.60;1.67;;;;;;;;;;5107225;28;20468;-67
2021/12/01 09:58:06;;;;;;;15.13;1.87;;;;;;;;;;5107164;28;20517;-68
2021/12/01 10:00:36;;;;;;;13.53;1.53;;;;;;;;;;5106938;28;20536;-67
2021/12/01 10:03:04;;;;;;;13.50;1.50;;;;;;;;;;5106971;28;20449;-69
2021/12/01 10:05:50;;;;;;;13.63;1.63;;;;;;;;;;5106776;28;20875;-67
2021/12/01 10:08:21;;;;;;;15.40;1.90;;;;;;;;;;5100595;28;20267;-67
2021/12/01 10:10:49;;;;;;;15.23;2.13;;;;;;;;;;5093008;28;20533;-67
2021/12/01 10:13:17;;;;;;;13.57;1.60;;;;;;;;;;5093168;28;20240;-67
2021/12/01 10:15:46;;;;;;;13.60;1.55;;;;;;;;;;5093271;28;20628;-68
2021/12/01 10:18:14;;;;;;;13.63;1.80;;;;;;;;;;5092627;28;20293;-69
2021/12/01 10:20:43;;;;;;;13.80;1.95;;;;;;;;;;5093108;28;20265;-67
2021/12/01 10:23:12;;;;;;;13.68;1.83;;;;;;;;;;5093253;28;20211;-67
2021/12/01 10:25:39;;;;;;;15.85;1.70;;;;;;;;;;5093095;28;20213;-66
2021/12/01 10:28:07;;;;;;;12.97;1.77;;;;;;;;;;5092686;28;20258;-67
2021/12/01 10:30:42;;;;;;;14.77;1.83;;;;;;;;;;5092713;28;20498;-68
2021/12/01 10:33:12;;;;;;;14.77;1.80;;;;;;;;;;5092682;28;20478;-67
2021/12/01 10:35:41;;;;;;;14.07;2.00;;;;;;;;;;5092788;28;20473;-67
2021/12/01 10:38:08;;;;;;;13.23;1.80;;;;;;;;;;5075046;28;20909;-68
2021/12/01 10:40:37;;;;;;;15.77;2.63;;;;;;;;;;5073509;28;20445;-67
2021/12/01 10:43:08;;;;;;;15.00;1.63;;;;;;;;;;5073159;28;20833;-67
2021/12/01 10:45:37;;;;;;;18.77;2.03;;;;;;;;;;5073071;28;20443;-67
2021/12/01 10:48:06;;;;;;;17.70;2.00;;;;;;;;;;5072966;28;20457;-67
2021/12/01 10:50:36;;;;;;;14.10;1.83;;;;;;;;;;5072961;28;20447;-68
2021/12/01 10:53:05;;;;;;;14.03;1.83;;;;;;;;;;5073100;28;20442;-68
2021/12/01 10:55:34;;;;;;;13.40;1.90;;;;;;;;;;5073024;28;20510;-66
2021/12/01 10:58:03;;;;;;;15.70;2.20;;;;;;;;;;5085926;28;20520;-66
2021/12/01 11:00:32;;;;;;;12.93;1.50;;;;;;;;;;5066041;28;20808;-67
2021/12/01 11:03:07;;;;;;;13.27;1.80;;;;;;;;;;5072996;28;20478;-68
2021/12/01 11:05:37;;;;;;;16.77;2.57;;;;;;;;;;5072751;28;20438;-67
2021/12/01 11:08:15;;;;;;;13.30;1.77;;;;;;;;;;5072363;28;20521;-67
2021/12/01 11:10:43;;;;;;;15.47;2.20;;;;;;;;;;5073065;28;20524;-67
2021/12/01 11:13:11;;;;;;;15.67;2.37;;;;;;;;;;5072754;28;20494;-67
2021/12/01 11:15:40;;;;;;;12.17;1.70;;;;;;;;;;5072610;28;20458;-66
2021/12/01 11:18:08;;;;;;;13.80;1.63;;;;;;;;;;5072389;28;20486;-67
2021/12/01 11:20:38;;;;;;;13.70;1.83;;;;;;;;;;5071421;28;20484;-67
2021/12/01 11:23:10;;;;;;;14.67;2.00;;;;;;;;;;5072267;28;20474;-67
2021/12/01 11:25:38;;;;;;;13.00;1.73;;;;;;;;;;5072493;28;20454;-66
2021/12/01 11:28:08;;;;;;;15.00;1.50;;;;;;;;;;5072125;28;20482;-67
2021/12/01 11:30:35;;;;;;;15.20;1.87;;;;;;;;;;5072080;28;20997;-67
2021/12/01 11:33:03;;;;;;;13.33;1.70;;;;;;;;;;5079491;28;20828;-66
2021/12/01 11:35:31;;;;;;;19.57;2.10;;;;;;;;;;5091475;28;20460;-67
2021/12/01 11:38:00;;;;;;;15.63;1.93;;;;;;;;;;5065544;28;20486;-67
2021/12/01 11:40:28;;;;;;;16.40;2.57;;;;;;;;;;5071913;28;20480;-67
2021/12/01 11:42:56;;;;;;;14.20;1.70;;;;;;;;;;5071834;28;20446;-70
2021/12/01 11:45:23;;;;;;;15.70;2.40;;;;;;;;;;5071835;28;20458;-66
2021/12/01 11:47:51;;;;;;;15.57;2.10;;;;;;;;;;5071799;28;20512;-67
2021/12/01 11:50:23;;;;;;;20.40;3.33;;;;;;;;;;5071917;28;20447;-67
2021/12/01 11:52:56;;;;;;;13.73;1.90;;;;;;;;;;5072165;28;20538;-67
2021/12/01 11:55:39;;;;;;;13.90;1.87;;;;;;;;;;5071864;28;20471;-68
2021/12/01 11:58:09;;;;;;;14.63;2.10;;;;;;;;;;5071082;28;20990;-67
2021/12/01 12:00:48;;;;;;;12.60;1.57;;;;;;;;;;5071567;28;20471;-67
2021/12/01 12:03:26;;;;;;;13.23;1.80;;;;;;;;;;5071589;28;20450;-67
2021/12/01 12:06:08;;;;;;;18.00;3.33;;;;;;;;;;5071515;28;20480;-67
2021/12/01 12:08:58;;;;;;;14.30;1.80;;;;;;;;;;5071007;28;21068;-67
2021/12/01 12:11:35;;;;;;;13.17;2.00;;;;;;;;;;5071397;28;20497;-67
2021/12/01 12:14:05;;;;;;;14.30;2.00;;;;;;;;;;5071561;28;20446;-67
2021/12/01 12:16:33;;;;;;;13.90;1.87;;;;;;;;;;5071350;28;20526;-67
2021/12/01 12:19:01;;;;;;;13.70;2.03;;;;;;;;;;5071284;28;20548;-68
2021/12/01 12:21:37;;;;;;;13.60;2.00;;;;;;;;;;5084728;28;20450;-67
2021/12/01 12:24:06;;;;;;;12.77;1.67;;;;;;;;;;5065572;28;20442;-68
2021/12/01 12:26:35;;;;;;;13.60;1.80;;;;;;;;;;5064398;28;20889;-67
2021/12/01 12:29:06;;;;;;;13.63;1.60;;;;;;;;;;5064084;28;20450;-66
2021/12/01 12:31:34;;;;;;;12.40;1.40;;;;;;;;;;5070857;28;20490;-67
2021/12/01 12:34:03;;;;;;;13.20;1.80;;;;;;;;;;5071492;28;20527;-67
2021/12/01 12:36:38;;;;;;;14.43;2.63;;;;;;;;;;5070789;28;20549;-67
2021/12/01 12:39:08;;;;;;;12.23;1.50;;;;;;;;;;5070982;28;20566;-68
2021/12/01 12:41:50;;;;;;;12.73;1.70;;;;;;;;;;5071083;28;20528;-67
2021/12/01 12:44:32;;;;;;;17.93;2.70;;;;;;;;;;5070603;28;20515;-67
2021/12/01 12:47:03;;;;;;;12.90;1.40;;;;;;;;;;5071216;28;20469;-66
2021/12/01 12:49:37;;;;;;;13.83;1.90;;;;;;;;;;5071134;28;20486;-68
2021/12/01 12:52:19;;;;;;;12.37;1.53;;;;;;;;;;5090389;28;20450;-67
2021/12/01 12:54:47;;;;;;;13.23;1.80;;;;;;;;;;5089987;28;20448;-67
2021/12/01 12:57:16;;;;;;;12.90;1.70;;;;;;;;;;5090423;28;20504;-68
2021/12/01 12:59:45;;;;;;;12.50;1.80;;;;;;;;;;5063821;28;20491;-68
2021/12/01 13:02:32;;;;;;;16.93;2.77;;;;;;;;;;5070591;28;20457;-67
2021/12/01 13:05:02;;;;;;;11.93;1.50;;;;;;;;;;5071103;28;20451;-67
2021/12/01 13:07:34;;;;;;;16.17;2.40;;;;;;;;;;5070478;28;20863;-67
2021/12/01 13:10:06;;;;;;;12.00;1.60;;;;;;;;;;5064760;28;20976;-67
2021/12/01 13:12:44;;;;;;;14.33;2.00;;;;;;;;;;5070386;28;20453;-67
2021/12/01 13:15:20;;;;;;;13.07;1.60;;;;;;;;;;5070931;28;20495;-67
2021/12/01 13:17:48;;;;;;;15.77;2.37;;;;;;;;;;5070516;28;20524;-67
2021/12/01 13:20:18;;;;;;;20.48;3.35;;;;;;;;;;5070811;28;20491;-69
2021/12/01 13:23:00;;;;;;;14.85;1.85;;;;;;;;;;5070680;28;20244;-68
2021/12/01 13:25:28;;;;;;;13.95;1.75;;;;;;;;;;5070660;28;20283;-67
2021/12/01 13:27:55;;;;;;;17.42;1.80;;;;;;;;;;5070427;28;20694;-68
2021/12/01 13:30:24;;;;;;;18.85;3.17;;;;;;;;;;5063967;28;20235;-67
2021/12/01 13:33:12;;;;;;;12.15;1.40;;;;;;;;;;5070602;28;20243;-67
2021/12/01 13:35:40;;;;;;;12.45;1.48;;;;;;;;;;5070599;28;20241;-67
2021/12/01 13:38:08;;;;;;;16.58;2.40;;;;;;;;;;5070360;28;20263;-70
2021/12/01 13:40:37;;;;;;;13.95;1.90;;;;;;;;;;5089867;28;20295;-68
2021/12/01 13:43:05;;;;;;;16.75;2.40;;;;;;;;;;5090556;28;20208;-68
2021/12/01 13:45:34;;;;;;;14.27;2.05;;;;;;;;;;5093513;28;20741;-67
2021/12/01 13:48:09;;;;;;;13.30;1.80;;;;;;;;;;5075613;28;20293;-67
2021/12/01 13:50:36;;;;;;;12.90;1.80;;;;;;;;;;5074131;28;20294;-67
2021/12/01 13:53:03;;;;;;;13.45;2.00;;;;;;;;;;5073921;28;20682;-67
2021/12/01 13:55:34;;;;;;;13.35;1.90;;;;;;;;;;5073977;28;20678;-68
2021/12/01 13:58:07;;;;;;;13.32;1.88;;;;;;;;;;5073993;28;20237;-66
2021/12/01 14:00:39;;;;;;;13.88;1.40;;;;;;;;;;5074009;28;20216;-67
2021/12/01 14:03:07;;;;;;;13.52;1.90;;;;;;;;;;5090026;28;20247;-67
2021/12/01 14:05:35;;;;;;;13.15;1.65;;;;;;;;;;5093024;28;20208;-67
2021/12/01 14:08:04;;;;;;;12.80;1.50;;;;;;;;;;5092832;28;20301;-67
2021/12/01 14:10:35;;;;;;;13.98;1.60;;;;;;;;;;5092734;28;20204;-67
2021/12/01 14:13:03;;;;;;;12.68;1.60;;;;;;;;;;5093166;28;20214;-67
2021/12/01 14:15:31;;;;;;;12.80;1.65;;;;;;;;;;5073350;28;20208;-67
2021/12/01 14:18:01;;;;;;;13.98;1.70;;;;;;;;;;5092975;28;20281;-66
2021/12/01 14:20:28;;;;;;;14.43;1.58;;;;;;;;;;5092702;28;20563;-66
2021/12/01 14:22:56;;;;;;;12.75;1.40;;;;;;;;;;5093013;28;20212;-67
2021/12/01 14:25:24;;;;;;;13.38;1.63;;;;;;;;;;5092818;28;20591;-66
2021/12/01 14:27:52;;;;;;;12.50;1.50;;;;;;;;;;5092922;28;20244;-67
2021/12/01 14:30:20;;;;;;;13.65;2.15;;;;;;;;;;5092480;28;20261;-67
2021/12/01 14:32:47;;;;;;;13.13;1.80;;;;;;;;;;5092534;28;20208;-66
2021/12/01 14:35:16;;;;;;;12.85;1.80;;;;;;;;;;5092624;28;20212;-67
2021/12/01 14:37:43;;;;;;;12.35;1.55;;;;;;;;;;5092896;28;20200;-66
2021/12/01 14:40:12;;;;;;;12.15;1.40;;;;;;;;;;5066721;28;20667;-66
2021/12/01 14:42:44;;;;;;;13.65;1.70;;;;;;;;;;5073407;28;20213;-66
2021/12/01 14:45:12;;;;;;;14.38;1.50;;;;;;;;;;5078202;28;20599;-67
2021/12/01 14:47:40;;;;;;;12.48;1.65;;;;;;;;;;5092775;28;20214;-66
2021/12/01 14:50:08;;;;;;;13.23;1.30;;;;;;;;;;5092531;28;20291;-68
2021/12/01 14:52:37;;;;;;;13.70;1.90;;;;;;;;;;5092399;28;20234;-67
2021/12/01 14:55:08;;;;;;;14.80;1.95;;;;;;;;;;5092149;28;20208;-67
2021/12/01 14:57:36;;;;;;;17.98;2.13;;;;;;;;;;5092182;28;20236;-68
2021/12/01 15:00:07;;;;;;;15.55;2.00;;;;;;;;;;5092106;28;20295;-66
2021/12/01 15:02:35;;;;;;;17.45;1.95;;;;;;;;;;5092136;28;20208;-68
2021/12/01 15:05:11;;;;;;;15.23;1.75;;;;;;;;;;5092070;28;20265;-66
2021/12/01 15:08:04;;;;;;;13.27;1.50;;;;;;;;;;5092208;28;20319;-67
2021/12/01 15:10:33;;;;;;;14.93;2.22;;;;;;;;;;5091917;28;20571;-68
2021/12/01 15:13:03;;;;;;;17.73;2.08;;;;;;;;;;5092018;28;20270;-69
2021/12/01 15:15:31;;;;;;;15.90;2.22;;;;;;;;;;5092012;28;20597;-69
2021/12/01 15:18:00;;;;;;;15.05;2.10;;;;;;;;;;5083208;28;20220;-67
2021/12/01 15:20:28;;;;;;;19.88;3.25;;;;;;;;;;5072091;28;20204;-67
2021/12/01 15:23:00;;;;;;;14.82;2.40;;;;;;;;;;5072503;28;20280;-68
2021/12/01 15:25:28;;;;;;;23.83;4.70;;;;;;;;;;5072693;28;20212;-67
2021/12/01 15:27:55;;;;;;;27.70;7.25;;;;;;;;;;5091788;28;20216;-69
2021/12/01 15:30:23;;;;;;;19.73;3.28;;;;;;;;;;5091614;28;20241;-67
2021/12/01 15:32:50;;;;;;;13.25;2.10;;;;;;;;;;5091314;28;20668;-67
2021/12/01 15:35:18;;;;;;;23.70;7.55;;;;;;;;;;5091437;28;20292;-67
2021/12/01 15:37:45;;;;;;;17.95;3.70;;;;;;;;;;5091323;28;20706;-68
2021/12/01 15:40:15;;;;;;;13.27;1.63;;;;;;;;;;5091173;28;20236;-67
2021/12/01 15:42:42;;;;;;;14.95;2.88;;;;;;;;;;5091509;28;20238;-67
2021/12/01 15:45:10;;;;;;;18.35;2.85;;;;;;;;;;5091287;28;20213;-66
2021/12/01 15:47:37;;;;;;;20.17;3.85;;;;;;;;;;5091042;28;20210;-66
2021/12/01 15:50:05;;;;;;;19.70;4.55;;;;;;;;;;5091579;28;20193;-67
2021/12/01 15:52:33;;;;;;;17.58;3.17;;;;;;;;;;5064898;28;20213;-67
2021/12/01 15:55:01;;;;;;;16.15;2.55;;;;;;;;;;5072322;28;20211;-67
2021/12/01 15:57:30;;;;;;;17.38;3.00;;;;;;;;;;5071756;28;20576;-67
2021/12/01 15:59:57;;;;;;;17.92;3.67;;;;;;;;;;5071595;28;20237;-67
2021/12/01 16:02:25;;;;;;;21.40;3.85;;;;;;;;;;5071309;28;20205;-67
2021/12/01 16:04:52;;;;;;;16.38;2.17;;;;;;;;;;5071470;28;20210;-67
2021/12/01 16:07:20;;;;;;;13.90;2.28;;;;;;;;;;5071193;28;20273;-67
2021/12/01 16:09:47;;;;;;;25.45;6.43;;;;;;;;;;5071489;28;20208;-67
2021/12/01 16:12:15;;;;;;;24.20;5.15;;;;;;;;;;5071419;28;20668;-68
2021/12/01 16:14:43;;;;;;;16.45;3.40;;;;;;;;;;5064619;28;20212;-67
2021/12/01 16:17:12;;;;;;;16.67;2.90;;;;;;;;;;5071491;28;20209;-67
2021/12/01 16:19:39;;;;;;;16.92;2.20;;;;;;;;;;5071395;28;20242;-66
2021/12/01 16:22:07;;;;;;;13.43;1.90;;;;;;;;;;5071437;28;20229;-67
2021/12/01 16:24:34;;;;;;;16.30;2.13;;;;;;;;;;5071410;28;20206;-66
2021/12/01 16:27:02;;;;;;;14.23;2.80;;;;;;;;;;5071247;28;20692;-67
2021/12/01 16:29:30;;;;;;;13.23;2.30;;;;;;;;;;5079651;28;20212;-67
2021/12/01 16:32:00;;;;;;;15.38;2.00;;;;;;;;;;5090951;28;20641;-66
2021/12/01 16:34:29;;;;;;;19.20;3.20;;;;;;;;;;5090334;28;20291;-67
2021/12/01 16:36:57;;;;;;;14.57;2.15;;;;;;;;;;5090403;28;20631;-68
2021/12/01 16:39:24;;;;;;;13.30;2.10;;;;;;;;;;5090580;28;20315;-67
2021/12/01 16:41:52;;;;;;;17.00;3.58;;;;;;;;;;5090281;28;20210;-66
2021/12/01 16:44:19;;;;;;;21.60;3.28;;;;;;;;;;5090368;28;20205;-66
2021/12/01 16:46:48;;;;;;;15.82;2.45;;;;;;;;;;5090358;28;20233;-67
2021/12/01 16:49:20;;;;;;;12.13;1.50;;;;;;;;;;5087106;28;20227;-68
2021/12/01 16:51:48;;;;;;;13.13;1.85;;;;;;;;;;5071053;28;20216;-67
2021/12/01 16:54:16;;;;;;;14.65;2.22;;;;;;;;;;5070660;28;20726;-68
2021/12/01 16:56:43;;;;;;;12.88;1.60;;;;;;;;;;5071019;28;20225;-67
2021/12/01 16:59:11;;;;;;;15.73;2.00;;;;;;;;;;5071048;28;20324;-69
2021/12/01 17:01:40;;;;;;;19.27;1.85;;;;;;;;;;5070794;28;20684;-67
2021/12/01 17:04:11;;;;;;;16.85;2.03;;;;;;;;;;5070757;28;20238;-66
2021/12/01 17:06:45;;;;;;;13.30;1.65;;;;;;;;;;5064008;28;20704;-67
2021/12/01 17:09:12;;;;;;;14.23;1.90;;;;;;;;;;5071046;28;20759;-67
2021/12/01 17:11:41;;;;;;;13.55;2.15;;;;;;;;;;5070925;28;20214;-66
2021/12/01 17:14:08;;;;;;;15.32;2.35;;;;;;;;;;5070829;28;20589;-67
2021/12/01 17:16:36;;;;;;;14.73;2.28;;;;;;;;;;5070950;28;20302;-67
2021/12/01 17:19:08;;;;;;;14.77;2.47;;;;;;;;;;5072878;28;20626;-67
2021/12/01 17:21:36;;;;;;;18.50;3.50;;;;;;;;;;5074759;28;20232;-67
2021/12/01 17:24:06;;;;;;;18.00;2.90;;;;;;;;;;5083920;28;20300;-66
2021/12/01 17:26:33;;;;;;;13.40;2.00;;;;;;;;;;5093749;28;20740;-67
2021/12/01 17:29:00;;;;;;;15.60;2.80;;;;;;;;;;5094040;28;20311;-68
2021/12/01 17:31:31;;;;;;;16.30;3.45;;;;;;;;;;5080104;28;20292;-68
2021/12/01 17:33:58;;;;;;;15.68;3.08;;;;;;;;;;5074342;28;20236;-66
2021/12/01 17:36:26;;;;;;;20.13;3.25;;;;;;;;;;5067081;28;20216;-69
2021/12/01 17:38:53;;;;;;;14.55;2.30;;;;;;;;;;5074552;28;20228;-67
2021/12/01 17:41:22;;;;;;;12.82;1.73;;;;;;;;;;5074440;28;20214;-68
2021/12/01 17:43:52;;;;;;;16.40;2.60;;;;;;;;;;5074330;28;20207;-67
2021/12/01 17:46:21;;;;;;;19.98;3.58;;;;;;;;;;5073892;28;20211;-67
2021/12/01 17:48:49;;;;;;;14.05;2.05;;;;;;;;;;5074366;28;20222;-66
2021/12/01 17:51:18;;;;;;;16.08;2.08;;;;;;;;;;5074304;28;20291;-69
2021/12/01 17:53:45;;;;;;;14.77;2.33;;;;;;;;;;5089167;28;20214;-67
2021/12/01 17:56:14;;;;;;;16.05;2.50;;;;;;;;;;5093272;28;20228;-67
2021/12/01 17:58:43;;;;;;;22.35;2.70;;;;;;;;;;5093195;28;20210;-68
2021/12/01 18:01:11;;;;;;;16.48;2.28;;;;;;;;;;5067527;28;20209;-67
2021/12/01 18:03:39;;;;;;;13.63;1.88;;;;;;;;;;5073979;28;20246;-66
2021/12/01 18:06:07;;;;;;;13.55;2.05;;;;;;;;;;5074098;28;20240;-67
2021/12/01 18:08:34;;;;;;;15.63;1.95;;;;;;;;;;5073740;28;20244;-66
2021/12/01 18:11:01;;;;;;;18.85;2.65;;;;;;;;;;5073884;28;20208;-67
2021/12/01 18:13:29;;;;;;;13.85;2.58;;;;;;;;;;5073624;28;20218;-67
2021/12/01 18:15:59;;;;;;;13.70;1.85;;;;;;;;;;5073971;28;20586;-67
2021/12/01 18:18:26;;;;;;;21.83;3.55;;;;;;;;;;5073688;28;20699;-67
2021/12/01 18:20:53;;;;;;;14.95;1.67;;;;;;;;;;5073678;28;20233;-67
2021/12/01 18:23:21;;;;;;;13.48;1.63;;;;;;;;;;5073546;28;20205;-67
2021/12/01 18:25:49;;;;;;;13.40;1.80;;;;;;;;;;5073350;28;20211;-66
2021/12/01 18:28:17;;;;;;;13.18;1.73;;;;;;;;;;5073200;28;20226;-67
2021/12/01 18:30:44;;;;;;;15.00;1.70;;;;;;;;;;5073139;28;20247;-67
2021/12/01 18:33:13;;;;;;;16.33;2.33;;;;;;;;;;5073450;28;20240;-68
2021/12/01 18:35:40;;;;;;;16.08;2.03;;;;;;;;;;5073324;28;20886;-66
2021/12/01 18:38:08;;;;;;;14.15;1.95;;;;;;;;;;5073346;28;20237;-67
2021/12/01 18:40:35;;;;;;;18.80;2.97;;;;;;;;;;5073040;28;20228;-67
2021/12/01 18:43:03;;;;;;;18.50;2.85;;;;;;;;;;5073193;28;20291;-67
2021/12/01 18:45:32;;;;;;;15.90;2.40;;;;;;;;;;5073229;28;20215;-67
2021/12/01 18:48:00;;;;;;;18.95;2.75;;;;;;;;;;5066538;28;20212;-67
2021/12/01 18:50:29;;;;;;;19.85;2.92;;;;;;;;;;5072781;28;20212;-67
2021/12/01 18:52:57;;;;;;;16.95;2.05;;;;;;;;;;5072950;28;20647;-67
2021/12/01 18:55:24;;;;;;;13.85;2.00;;;;;;;;;;5073129;28;20312;-67
2021/12/01 18:57:52;;;;;;;13.80;2.25;;;;;;;;;;5073123;28;20285;-67
2021/12/01 19:00:20;;;;;;;19.15;3.20;;;;;;;;;;5072624;28;20235;-67
2021/12/01 19:02:49;;;;;;;13.20;2.00;;;;;;;;;;5072945;28;20281;-67
2021/12/01 19:21:52;;;;;;;16.50;5.80;;;;;;;;;;5028467;27;1350895;-66
2021/12/01 19:24:19;;;;;;;19.83;9.98;;;;;;;;;;5067740;28;20537;-66
2021/12/01 19:26:48;;;;;;;15.43;5.75;;;;;;;;;;5067643;28;20593;-67
2021/12/01 19:29:15;;;;;;;25.90;11.52;;;;;;;;;;5067461;28;20220;-66
2021/12/01 19:31:43;;;;;;;19.20;8.00;;;;;;;;;;5061032;28;20696;-66
2021/12/01 19:34:10;;;;;;;20.23;10.75;;;;;;;;;;5067557;28;20208;-66
2021/12/01 19:36:38;;;;;;;16.25;3.20;;;;;;;;;;5067689;28;20204;-67
2021/12/01 19:39:06;;;;;;;15.80;3.30;;;;;;;;;;5067509;28;20208;-66
2021/12/01 19:41:34;;;;;;;21.92;6.57;;;;;;;;;;5067271;28;20291;-66
2021/12/01 19:44:02;;;;;;;23.50;13.90;;;;;;;;;;5067527;28;20209;-67
2021/12/01 19:46:31;;;;;;;67.28;30.95;;;;;;;;;;5067651;28;20594;-66
2021/12/01 19:49:01;;;;;;;24.20;15.07;;;;;;;;;;5067660;28;20240;-66
2021/12/01 19:51:29;;;;;;;74.35;35.03;;;;;;;;;;5066926;28;20238;-66
2021/12/01 19:53:56;;;;;;;27.52;17.45;;;;;;;;;;5067075;28;20205;-66
2021/12/01 19:56:27;;;;;;;16.65;6.53;;;;;;;;;;5067306;28;20205;-66
2021/12/01 19:58:56;;;;;;;45.58;24.08;;;;;;;;;;5067195;28;20228;-66
2021/12/01 20:01:24;;;;;;;29.33;18.00;;;;;;;;;;5066771;28;20208;-67
2021/12/01 20:03:52;;;;;;;16.30;4.97;;;;;;;;;;5067255;28;20661;-68
2021/12/01 20:06:20;;;;;;;24.85;16.55;;;;;;;;;;5066834;28;20208;-66
2021/12/01 20:08:52;;;;;;;50.38;26.27;;;;;;;;;;5066726;28;20214;-67
2021/12/01 20:11:19;;;;;;;42.33;24.00;;;;;;;;;;5066597;28;20290;-66
2021/12/01 20:13:48;;;;;;;34.35;20.08;;;;;;;;;;5066631;28;20716;-67
2021/12/01 20:16:18;;;;;;;31.90;20.35;;;;;;;;;;5066796;28;20213;-67
2021/12/01 20:18:45;;;;;;;42.58;24.35;;;;;;;;;;5066570;28;20197;-66
2021/12/01 20:21:14;;;;;;;31.23;19.83;;;;;;;;;;5061955;28;20234;-66
2021/12/01 20:23:43;;;;;;;25.42;16.60;;;;;;;;;;5046815;28;20209;-66
2021/12/01 20:26:11;;;;;;;25.85;15.70;;;;;;;;;;5053446;28;20277;-66
2021/12/01 20:28:39;;;;;;;28.92;17.95;;;;;;;;;;5053194;28;20208;-66
2021/12/01 20:31:09;;;;;;;48.72;26.95;;;;;;;;;;5052990;28;20250;-68
2021/12/01 20:33:37;;;;;;;40.63;24.35;;;;;;;;;;5052795;28;20206;-67
2021/12/01 20:36:05;;;;;;;39.00;21.70;;;;;;;;;;5053275;28;20209;-66
2021/12/01 20:38:33;;;;;;;24.08;15.88;;;;;;;;;;5053283;28;20284;-66
2021/12/01 20:41:05;;;;;;;20.77;12.90;;;;;;;;;;5052869;28;20216;-66
2021/12/01 20:43:33;;;;;;;33.35;19.75;;;;;;;;;;5052711;28;20300;-66
2021/12/01 20:46:08;;;;;;;21.20;13.95;;;;;;;;;;5052739;28;20650;-66
2021/12/01 20:57:06;;;;;;;16.92;6.18;;;;;;;;;;5052197;28;20240;-67
2021/12/01 20:59:45;;;;;;;23.15;10.18;;;;;;;;;;5052509;28;20210;-66
2021/12/01 21:02:14;;;;;;;16.70;3.95;;;;;;;;;;5052748;28;20263;-66
2021/12/01 21:04:43;;;;;;;18.15;4.68;;;;;;;;;;5052590;28;20210;-67
2021/12/01 21:07:10;;;;;;;19.02;4.43;;;;;;;;;;5045750;28;20209;-66
2021/12/01 21:09:41;;;;;;;17.85;3.35;;;;;;;;;;5052291;28;20229;-66
2021/12/01 21:12:11;;;;;;;15.30;3.25;;;;;;;;;;5052506;28;20206;-66
2021/12/01 21:14:39;;;;;;;21.40;3.40;;;;;;;;;;5052303;28;20210;-65
2021/12/01 21:17:07;;;;;;;16.42;5.45;;;;;;;;;;5052499;28;20209;-68
2021/12/01 21:19:34;;;;;;;25.35;10.23;;;;;;;;;;5052398;28;20561;-67
2021/12/01 21:22:06;;;;;;;16.08;4.63;;;;;;;;;;5051931;28;20351;-66
2021/12/01 21:24:35;;;;;;;19.40;4.45;;;;;;;;;;5052209;28;20300;-67
2021/12/01 21:27:04;;;;;;;21.60;5.00;;;;;;;;;;5052406;28;20601;-67
2021/12/01 21:29:34;;;;;;;23.48;5.47;;;;;;;;;;5051829;28;20216;-66
2021/12/01 21:32:08;;;;;;;19.00;6.32;;;;;;;;;;5051886;28;20655;-68
2021/12/01 21:34:38;;;;;;;26.35;9.48;;;;;;;;;;5051034;28;20594;-66
2021/12/01 21:37:09;;;;;;;22.90;6.47;;;;;;;;;;5052511;28;20205;-66
2021/12/01 21:39:37;;;;;;;29.35;8.57;;;;;;;;;;5045460;28;20205;-67
2021/12/01 21:42:05;;;;;;;17.05;3.15;;;;;;;;;;5051716;28;20205;-65
2021/12/01 21:44:32;;;;;;;23.70;5.93;;;;;;;;;;5051761;28;20744;-67
2021/12/01 21:47:00;;;;;;;28.13;9.82;;;;;;;;;;5051922;28;20205;-66
2021/12/01 21:49:27;;;;;;;22.90;6.80;;;;;;;;;;5051385;28;20213;-66
2021/12/01 21:51:55;;;;;;;25.90;8.90;;;;;;;;;;5051560;28;20240;-66
2021/12/01 21:54:25;;;;;;;16.05;3.95;;;;;;;;;;5051702;28;20300;-66
2021/12/01 21:56:52;;;;;;;21.05;9.18;;;;;;;;;;5051529;28;20214;-67
2021/12/01 21:59:21;;;;;;;24.23;16.17;;;;;;;;;;5051188;28;20287;-66
2021/12/01 22:01:49;;;;;;;15.80;6.55;;;;;;;;;;5051548;28;20213;-66
2021/12/01 22:04:18;;;;;;;17.33;7.57;;;;;;;;;;5051845;28;20308;-67
2021/12/01 22:06:45;;;;;;;15.95;4.80;;;;;;;;;;5051364;28;20209;-66
2021/12/01 22:09:13;;;;;;;24.92;15.68;;;;;;;;;;5051335;28;20227;-67
2021/12/01 22:11:42;;;;;;;27.80;17.17;;;;;;;;;;5050943;28;20264;-66
2021/12/01 22:14:10;;;;;;;20.08;10.85;;;;;;;;;;5051376;28;20237;-66
2021/12/01 22:16:38;;;;;;;19.60;10.82;;;;;;;;;;5051268;28;20201;-66
2021/12/01 22:19:05;;;;;;;39.20;22.83;;;;;;;;;;5050810;28;20705;-66
2021/12/01 22:21:36;;;;;;;31.00;14.00;;;;;;;;;;5050663;28;20247;-66
2021/12/01 22:24:06;;;;;;;21.67;6.00;;;;;;;;;;5051091;28;20296;-66
2021/12/01 22:26:35;;;;;;;16.98;10.68;;;;;;;;;;5045246;28;20722;-66
2021/12/01 22:29:08;;;;;;;19.65;7.68;;;;;;;;;;5044461;28;20245;-66
2021/12/01 22:31:38;;;;;;;30.30;18.30;;;;;;;;;;5044021;28;20293;-66
2021/12/01 22:34:07;;;;;;;34.50;20.00;;;;;;;;;;5051175;28;20232;-66
2021/12/01 22:36:35;;;;;;;27.08;16.85;;;;;;;;;;5050695;28;20208;-66
2021/12/01 22:39:03;;;;;;;30.08;18.92;;;;;;;;;;5050710;28;20216;-67
2021/12/01 22:41:31;;;;;;;57.63;30.13;;;;;;;;;;5050505;28;20270;-66
2021/12/01 22:44:00;;;;;;;40.42;23.17;;;;;;;;;;5050626;28;20267;-66
2021/12/01 22:46:29;;;;;;;51.00;26.35;;;;;;;;;;5050711;28;20209;-66
2021/12/01 22:48:56;;;;;;;63.03;30.55;;;;;;;;;;5050603;28;20671;-67
2021/12/01 22:51:24;;;;;;;51.08;26.30;;;;;;;;;;5050318;28;20618;-66
2021/12/01 22:53:52;;;;;;;63.60;30.45;;;;;;;;;;5051000;28;20653;-66
2021/12/01 22:56:26;;;;;;;70.55;33.22;;;;;;;;;;5050214;28;20236;-66
2021/12/01 22:58:56;;;;;;;58.70;28.25;;;;;;;;;;5043382;28;20201;-66
2021/12/01 23:01:24;;;;;;;61.88;30.63;;;;;;;;;;5050327;28;20662;-66
2021/12/01 23:03:54;;;;;;;48.60;25.33;;;;;;;;;;5050445;28;20674;-66
2021/12/01 23:06:22;;;;;;;47.63;24.35;;;;;;;;;;5050748;28;20227;-66
2021/12/01 23:08:52;;;;;;;37.55;21.30;;;;;;;;;;5050433;28;20201;-66
2021/12/01 23:11:20;;;;;;;57.33;27.58;;;;;;;;;;5050153;28;20236;-67
2021/12/01 23:13:47;;;;;;;65.85;29.70;;;;;;;;;;5050502;28;20213;-67
2021/12/01 23:16:15;;;;;;;65.60;29.20;;;;;;;;;;5050275;28;20213;-65
2021/12/01 23:18:42;;;;;;;58.45;28.27;;;;;;;;;;5050599;28;20216;-66
2021/12/01 23:21:11;;;;;;;62.40;28.52;;;;;;;;;;5050399;28;20323;-66
2021/12/01 23:29:09;;;;;;;69.15;30.63;;;;;;;;;;5050268;28;20717;-66
2021/12/01 23:31:36;;;;;;;76.32;34.80;;;;;;;;;;5049914;28;20705;-66
2021/12/01 23:34:04;;;;;;;65.82;30.27;;;;;;;;;;5050382;28;20574;-66
2021/12/01 23:36:37;;;;;;;43.13;23.25;;;;;;;;;;5050169;28;20209;-67
2021/12/01 23:39:06;;;;;;;66.72;30.02;;;;;;;;;;5050195;28;20219;-66
2021/12/01 23:41:33;;;;;;;78.93;35.25;;;;;;;;;;5049926;28;20205;-67
2021/12/01 23:44:02;;;;;;;70.38;30.83;;;;;;;;;;5049998;28;20696;-66
2021/12/01 23:46:46;;;;;;;51.83;26.20;;;;;;;;;;5050014;28;20209;-68
2021/12/01 23:52:14;;;;;;;126.88;56.83;;;;;;;;;;5015909;28;20238;-66
2021/12/01 23:54:42;;;;;;;118.53;38.15;;;;;;;;;;5050611;28;20220;-66
2021/12/01 23:57:09;;;;;;;139.95;45.67;;;;;;;;;;5051406;28;20220;-68
2021/12/01 23:59:37;;;;;;;81.13;33.15;;;;;;;;;;5053124;28;20304;-67
